createdAt,value
2023-02-09T00:00:11.957Z,103587.78
2023-02-09T00:03:18.561Z,103588.72
2023-02-09T00:06:23.802Z,103585.19
2023-02-09T00:09:26.705Z,103583.38
2023-02-09T00:12:46.921Z,103568.34
2023-02-09T00:15:52.584Z,103576.31
2023-02-09T00:18:57.194Z,103569.22
2023-02-09T00:22:00.208Z,103568.34
2023-02-09T00:25:03.099Z,103564.78
2023-02-09T00:28:06.128Z,103548.75
2023-02-09T00:31:12.821Z,103556.75
2023-02-09T00:34:17.104Z,103562.94
2023-02-09T00:37:19.922Z,103554.06
2023-02-09T00:40:22.791Z,103554.06
2023-02-09T00:43:25.631Z,103547.84
2023-02-09T00:46:30.317Z,103546.06
2023-02-09T00:49:34.442Z,103535.41
2023-02-09T00:52:37.263Z,103535.41
2023-02-09T00:55:40.117Z,103533.66
2023-02-09T00:58:43.705Z,103530.13
2023-02-09T01:01:47.987Z,103536.34
2023-02-09T01:04:51.327Z,103539.03
2023-02-09T01:07:54.432Z,103543.44
2023-02-09T01:10:57.416Z,103539.91
2023-02-09T01:14:02.477Z,103539.00
2023-02-09T01:17:07.756Z,103536.34
2023-02-09T01:20:11.659Z,103534.53
2023-02-09T01:23:14.527Z,103537.25
2023-02-09T01:26:18.685Z,103532.78
2023-02-09T01:29:22.165Z,103523.03
2023-02-09T01:32:26.335Z,103520.38
2023-02-09T01:35:31.757Z,103511.50
2023-02-09T01:38:35.167Z,103502.63
2023-02-09T01:41:38.311Z,103497.28
2023-02-09T01:45:07.057Z,103491.06
2023-02-09T01:48:11.754Z,103485.72
2023-02-09T01:51:14.914Z,103477.72
2023-02-09T01:54:22.067Z,103475.94
2023-02-09T01:57:28.338Z,103473.28
2023-02-09T02:00:31.355Z,103467.97
2023-02-09T02:03:35.712Z,103464.38
2023-02-09T02:06:38.962Z,103461.72
2023-02-09T02:09:43.290Z,103459.06
2023-02-09T02:12:46.521Z,103457.31
2023-02-09T02:15:59.329Z,103447.53
2023-02-09T02:19:22.944Z,103444.84
2023-02-09T02:22:45.351Z,103450.19
2023-02-09T02:26:43.213Z,103446.66
2023-02-09T02:30:17.593Z,103444.88
2023-02-09T02:33:34.068Z,103441.31
2023-02-09T02:36:43.220Z,103441.31
2023-02-09T02:39:53.035Z,103428.91
2023-02-09T02:43:03.481Z,103414.66
2023-02-09T02:46:11.118Z,103430.66
2023-02-09T02:49:22.548Z,103428.00
2023-02-09T02:52:25.738Z,103421.78
2023-02-09T02:55:33.128Z,103420.03
2023-02-09T02:58:40.162Z,103412.94
2023-02-09T03:01:50.771Z,103412.97
2023-02-09T03:04:57.864Z,103404.97
2023-02-09T03:08:00.725Z,103412.06
2023-02-09T03:11:03.644Z,103409.41
2023-02-09T03:14:19.840Z,103398.72
2023-02-09T03:17:36.698Z,103388.06
2023-02-09T03:20:44.702Z,103388.06
2023-02-09T03:23:55.659Z,103383.63
2023-02-09T03:27:03.314Z,103382.75
2023-02-09T03:30:12.594Z,103370.31
2023-02-09T03:33:21.038Z,103372.09
2023-02-09T03:36:26.817Z,103364.09
2023-02-09T03:39:29.676Z,103361.44
2023-02-09T03:42:32.629Z,103358.75
2023-02-09T03:45:35.513Z,103356.09
2023-02-09T03:48:38.512Z,103360.53
2023-02-09T03:51:42.934Z,103364.97
2023-02-09T03:54:45.748Z,103353.41
2023-02-09T03:57:48.707Z,103364.97
2023-02-09T04:00:51.675Z,103362.28
2023-02-09T04:03:54.583Z,103364.94
2023-02-09T04:06:58.961Z,103361.38
2023-02-09T04:10:01.791Z,103352.50
2023-02-09T04:13:04.600Z,103351.59
2023-02-09T04:16:08.075Z,103341.84
2023-02-09T04:19:11.324Z,103339.19
2023-02-09T04:22:15.487Z,103331.19
2023-02-09T04:25:20.121Z,103324.97
2023-02-09T04:28:22.943Z,103332.06
2023-02-09T04:31:26.186Z,103323.19
2023-02-09T04:34:29.165Z,103323.19
2023-02-09T04:37:33.351Z,103327.66
2023-02-09T04:40:36.299Z,103317.00
2023-02-09T04:43:39.164Z,103312.53
2023-02-09T04:46:43.646Z,103313.47
2023-02-09T04:49:47.675Z,103310.78
2023-02-09T04:52:51.917Z,103300.13
2023-02-09T04:55:54.718Z,103288.59
2023-02-09T04:59:15.239Z,103281.50
2023-02-09T05:02:18.200Z,103281.50
2023-02-09T05:05:21.019Z,103302.81
2023-02-09T05:08:26.356Z,103295.72
2023-02-09T05:11:29.211Z,103294.84
2023-02-09T05:14:32.022Z,103293.94
2023-02-09T05:17:35.038Z,103283.28
2023-02-09T05:20:38.336Z,103285.03
2023-02-09T05:23:42.965Z,103285.97
2023-02-09T05:26:45.860Z,103277.97
2023-02-09T05:29:48.750Z,103284.19
2023-02-09T05:32:51.602Z,103273.50
2023-02-09T05:35:55.880Z,103269.06
2023-02-09T05:39:00.213Z,103264.63
2023-02-09T05:42:18.280Z,103263.75
2023-02-09T05:45:21.162Z,103269.06
2023-02-09T05:48:23.992Z,103269.97
2023-02-09T05:51:26.924Z,103255.75
2023-02-09T05:54:31.431Z,103260.19
2023-02-09T05:57:34.993Z,103266.38
2023-02-09T06:00:38.043Z,103274.38
2023-02-09T06:03:40.914Z,103262.84
2023-02-09T06:06:44.095Z,103261.97
2023-02-09T06:09:48.314Z,103266.44
2023-02-09T06:12:51.261Z,103261.97
2023-02-09T06:15:54.230Z,103269.03
2023-02-09T06:18:57.179Z,103268.16
2023-02-09T06:22:00.137Z,103263.72
2023-02-09T06:25:04.447Z,103271.69
2023-02-09T06:28:07.760Z,103269.91
2023-02-09T06:31:11.577Z,103258.38
2023-02-09T06:34:14.893Z,103273.50
2023-02-09T06:37:17.707Z,103276.16
2023-02-09T06:40:21.956Z,103277.94
2023-02-09T06:43:25.330Z,103279.69
2023-02-09T06:46:28.518Z,103283.28
2023-02-09T06:49:31.528Z,103277.94
2023-02-09T06:52:34.659Z,103285.94
2023-02-09T06:55:39.003Z,103285.06
2023-02-09T06:58:42.804Z,103299.28
2023-02-09T07:01:45.714Z,103292.16
2023-02-09T07:04:48.636Z,103291.28
2023-02-09T07:07:51.490Z,103297.50
2023-02-09T07:10:55.764Z,103297.50
2023-02-09T07:13:58.685Z,103298.41
2023-02-09T07:17:01.972Z,103296.59
2023-02-09T07:20:05.612Z,103289.50
2023-02-09T07:23:08.600Z,103298.41
2023-02-09T07:26:16.102Z,103290.38
2023-02-09T07:29:19.064Z,103294.84
2023-02-09T07:32:22.839Z,103293.06
2023-02-09T07:35:25.681Z,103291.25
2023-02-09T07:38:28.628Z,103277.97
2023-02-09T07:41:33.636Z,103284.19
2023-02-09T07:44:36.424Z,103275.28
2023-02-09T07:47:39.443Z,103280.59
2023-02-09T07:50:43.024Z,103277.94
2023-02-09T07:53:46.293Z,103277.94
2023-02-09T07:56:50.438Z,103273.50
2023-02-09T07:59:53.252Z,103268.19
2023-02-09T08:02:56.259Z,103269.97
2023-02-09T08:06:02.849Z,103282.38
2023-02-09T08:09:06.326Z,103273.50
2023-02-09T08:12:10.749Z,103279.69
2023-02-09T08:15:14.028Z,103281.50
2023-02-09T08:18:22.962Z,103277.03
2023-02-09T08:21:27.371Z,103285.97
2023-02-09T08:24:31.896Z,103270.84
2023-02-09T08:27:37.387Z,103275.28
2023-02-09T08:30:40.360Z,103271.72
2023-02-09T08:33:44.036Z,103264.63
2023-02-09T08:36:46.894Z,103269.97
2023-02-09T08:39:49.847Z,103276.19
2023-02-09T08:42:54.639Z,103270.84
2023-02-09T08:46:03.631Z,103270.84
2023-02-09T08:49:06.536Z,103271.72
2023-02-09T08:52:09.619Z,103259.31
2023-02-09T08:55:13.166Z,103254.88
2023-02-09T08:58:17.343Z,103260.19
2023-02-09T09:01:20.280Z,103252.19
2023-02-09T09:04:23.232Z,103254.88
2023-02-09T09:07:26.161Z,103250.41
2023-02-09T09:10:29.394Z,103249.53
2023-02-09T09:13:33.716Z,103246.88
2023-02-09T09:16:36.690Z,103244.22
2023-02-09T09:19:39.918Z,103245.97
2023-02-09T09:22:42.765Z,103253.09
2023-02-09T09:25:46.048Z,103238.88
2023-02-09T09:28:52.112Z,103237.97
2023-02-09T09:31:55.027Z,103239.78
2023-02-09T09:35:00.086Z,103245.09
2023-02-09T09:38:03.359Z,103240.66
2023-02-09T09:41:17.128Z,103240.66
2023-02-09T09:44:28.740Z,103223.75
2023-02-09T09:47:37.346Z,103222.91
2023-02-09T09:50:44.504Z,103213.13
2023-02-09T09:53:51.731Z,103203.34
2023-02-09T09:56:55.687Z,103182.94
2023-02-09T10:00:18.609Z,103178.50
2023-02-09T10:03:23.094Z,103176.72
2023-02-09T10:06:26.152Z,103179.38
2023-02-09T10:09:43.749Z,103177.59
2023-02-09T10:12:50.564Z,103190.03
2023-02-09T10:15:57.214Z,103180.25
2023-02-09T10:19:02.027Z,103199.81
2023-02-09T10:22:05.509Z,103200.69
2023-02-09T10:25:39.188Z,103188.25
2023-02-09T10:28:44.914Z,103191.84
2023-02-09T10:31:54.992Z,103192.69
2023-02-09T10:35:02.209Z,103182.03
2023-02-09T10:38:05.421Z,103167.84
2023-02-09T10:41:11.915Z,103166.94
2023-02-09T10:44:20.126Z,103158.97
2023-02-09T10:47:30.960Z,103149.16
2023-02-09T10:50:33.993Z,103140.31
2023-02-09T10:53:39.469Z,103126.09
2023-02-09T10:56:46.223Z,103120.78
2023-02-09T10:59:52.509Z,103106.56
2023-02-09T11:03:01.706Z,103110.13
2023-02-09T11:06:15.066Z,103104.78
2023-02-09T11:09:21.365Z,103096.78
2023-02-09T11:12:27.680Z,103093.25
2023-02-09T11:15:43.345Z,103100.34
2023-02-09T11:18:57.750Z,103101.22
2023-02-09T11:22:07.439Z,103095.88
2023-02-09T11:25:20.994Z,103084.38
2023-02-09T11:28:34.686Z,103083.47
2023-02-09T11:31:49.520Z,103088.81
2023-02-09T11:35:03.487Z,103079.03
2023-02-09T11:38:13.479Z,103076.38
2023-02-09T11:41:41.939Z,103077.25
2023-02-09T11:44:48.912Z,103072.81
2023-02-09T11:48:00.283Z,103073.69
2023-02-09T11:51:09.109Z,103072.81
2023-02-09T11:54:17.171Z,103071.97
2023-02-09T11:57:31.447Z,103070.16
2023-02-09T12:00:53.180Z,103070.16
2023-02-09T12:04:07.296Z,103066.59
2023-02-09T12:07:21.174Z,103063.94
2023-02-09T12:10:29.884Z,103055.94
2023-02-09T12:13:43.339Z,103064.81
2023-02-09T12:16:55.975Z,103054.16
2023-02-09T12:20:01.721Z,103054.16
2023-02-09T12:23:16.959Z,103058.63
2023-02-09T12:26:44.505Z,103040.84
2023-02-09T12:29:47.352Z,103050.63
2023-02-09T12:32:50.188Z,103031.09
2023-02-09T12:36:00.632Z,103031.09
2023-02-09T12:39:24.330Z,103025.78
2023-02-09T12:42:29.245Z,103031.09
2023-02-09T12:45:36.003Z,103024.84
2023-02-09T12:48:49.996Z,103028.44
2023-02-09T12:52:07.149Z,103044.41
2023-02-09T12:55:18.672Z,103038.19
2023-02-09T12:58:54.719Z,103044.44
2023-02-09T13:02:13.207Z,103060.41
2023-02-09T13:05:20.190Z,103064.84
2023-02-09T13:08:31.753Z,103068.44
2023-02-09T13:11:49.275Z,103067.50
2023-02-09T13:14:52.561Z,103066.63
2023-02-09T13:18:07.956Z,103067.50
2023-02-09T13:21:28.384Z,103071.94
2023-02-09T13:24:42.759Z,103058.63
2023-02-09T13:27:49.312Z,103068.41
2023-02-09T13:30:52.164Z,103063.97
2023-02-09T13:34:01.126Z,103070.16
2023-02-09T13:37:15.420Z,103075.47
2023-02-09T13:40:23.366Z,103062.16
2023-02-09T13:43:30.490Z,103048.84
2023-02-09T13:46:35.392Z,103017.78
2023-02-09T13:49:38.466Z,103038.19
2023-02-09T13:52:41.330Z,103019.53
2023-02-09T13:55:48.702Z,103002.66
2023-02-09T13:58:54.361Z,103007.09
2023-02-09T14:01:57.323Z,103013.28
2023-02-09T14:05:04.416Z,103039.06
2023-02-09T14:08:07.969Z,103025.72
2023-02-09T14:11:33.229Z,103023.06
2023-02-09T14:15:07.129Z,103030.16
2023-02-09T14:18:42.419Z,103014.19
2023-02-09T14:21:46.393Z,102992.88
2023-02-09T14:24:49.406Z,103020.41
2023-02-09T14:27:52.912Z,103045.25
2023-02-09T14:30:57.290Z,103045.28
2023-02-09T14:34:00.304Z,103047.91
2023-02-09T14:37:25.432Z,103050.56
2023-02-09T14:40:31.968Z,103044.34
2023-02-09T14:43:34.850Z,103036.34
2023-02-09T14:46:53.408Z,103052.34
2023-02-09T14:49:57.899Z,103041.69
2023-02-09T14:53:07.004Z,103048.75
2023-02-09T14:56:19.236Z,103037.22
2023-02-09T14:59:23.315Z,103034.56
2023-02-09T15:02:29.063Z,103016.78
2023-02-09T15:05:32.059Z,103009.72
2023-02-09T15:08:39.001Z,102989.25
2023-02-09T15:11:59.442Z,102984.81
2023-02-09T15:15:03.114Z,102967.09
2023-02-09T15:18:07.947Z,102987.47
2023-02-09T15:21:10.777Z,102999.91
2023-02-09T15:24:13.759Z,102991.94
2023-02-09T15:27:24.949Z,103007.91
2023-02-09T15:30:31.625Z,103006.09
2023-02-09T15:33:35.897Z,103007.00
2023-02-09T15:36:39.313Z,102997.25
2023-02-09T15:39:42.101Z,103005.25
2023-02-09T15:43:02.687Z,103002.59
2023-02-09T15:46:23.700Z,102984.81
2023-02-09T15:49:27.960Z,102986.59
2023-02-09T15:52:30.934Z,102975.94
2023-02-09T15:55:35.349Z,102988.34
2023-02-09T15:58:41.732Z,102997.25
2023-02-09T16:01:44.926Z,102989.22
2023-02-09T16:04:49.476Z,102993.66
2023-02-09T16:07:53.864Z,102967.03
2023-02-09T16:10:57.416Z,102959.03
2023-02-09T16:14:01.486Z,102954.59
2023-02-09T16:17:04.559Z,102967.03
2023-02-09T16:20:11.239Z,102978.59
2023-02-09T16:23:20.979Z,102989.22
2023-02-09T16:26:24.526Z,102975.03
2023-02-09T16:29:27.587Z,102969.72
2023-02-09T16:32:30.556Z,102970.63
2023-02-09T16:35:35.280Z,102974.16
2023-02-09T16:38:38.728Z,102952.84
2023-02-09T16:41:53.746Z,102968.84
2023-02-09T16:44:57.513Z,102970.63
2023-02-09T16:48:00.395Z,102975.94
2023-02-09T16:51:05.737Z,102967.94
2023-02-09T16:54:08.544Z,102975.06
2023-02-09T16:57:17.223Z,102979.50
2023-02-09T17:00:20.387Z,102981.28
2023-02-09T17:03:29.874Z,102983.94
2023-02-09T17:06:34.344Z,102992.84
2023-02-09T17:09:37.164Z,102975.97
2023-02-09T17:12:40.219Z,102982.22
2023-02-09T17:15:46.520Z,102973.31
2023-02-09T17:18:52.060Z,102975.09
2023-02-09T17:22:00.282Z,102976.84
2023-02-09T17:25:03.199Z,102993.72
2023-02-09T17:28:06.112Z,102993.72
2023-02-09T17:31:17.705Z,102998.16
2023-02-09T17:34:22.020Z,102990.19
2023-02-09T17:37:26.175Z,102984.84
2023-02-09T17:40:28.934Z,102998.16
2023-02-09T17:43:31.732Z,103008.84
2023-02-09T17:46:34.688Z,103005.28
2023-02-09T17:49:37.644Z,103002.59
2023-02-09T17:52:41.882Z,103007.06
2023-02-09T17:55:45.581Z,103010.63
2023-02-09T17:58:48.603Z,103007.97
2023-02-09T18:01:51.562Z,103011.53
2023-02-09T18:04:54.342Z,103016.84
2023-02-09T18:07:58.519Z,103020.41
2023-02-09T18:11:01.454Z,103022.19
2023-02-09T18:14:04.376Z,103020.41
2023-02-09T18:17:07.340Z,103007.97
2023-02-09T18:20:16.215Z,103013.28
2023-02-09T18:23:20.388Z,103016.84
2023-02-09T18:26:23.220Z,103015.97
2023-02-09T18:29:29.712Z,103015.06
2023-02-09T18:32:32.732Z,103006.19
2023-02-09T18:35:38.237Z,103008.00
2023-02-09T18:38:43.276Z,103013.31
2023-02-09T18:41:48.382Z,103028.41
2023-02-09T18:44:51.670Z,103019.50
2023-02-09T18:47:54.500Z,103015.97
2023-02-09T18:50:57.373Z,102999.09
2023-02-09T18:54:01.931Z,103006.19
2023-02-09T18:57:04.870Z,102995.53
2023-02-09T19:00:09.417Z,103000.88
2023-02-09T19:03:16.980Z,103009.75
2023-02-09T19:06:21.296Z,103017.75
2023-02-09T19:09:25.538Z,103008.84
2023-02-09T19:12:28.563Z,103003.53
2023-02-09T19:15:32.337Z,103010.66
2023-02-09T19:18:35.356Z,103002.69
2023-02-09T19:21:38.151Z,102999.09
2023-02-09T19:24:42.927Z,103007.97
2023-02-09T19:27:45.770Z,103008.84
2023-02-09T19:30:48.978Z,103002.63
2023-02-09T19:33:55.693Z,102992.88
2023-02-09T19:36:58.543Z,102985.75
2023-02-09T19:40:07.277Z,102980.47
2023-02-09T19:43:12.159Z,102986.69
2023-02-09T19:46:15.075Z,102986.69
2023-02-09T19:49:17.950Z,102984.91
2023-02-09T19:52:20.764Z,102984.91
2023-02-09T19:55:24.918Z,102990.25
2023-02-09T19:58:27.706Z,102991.13
2023-02-09T20:01:31.577Z,102990.25
2023-02-09T20:04:35.349Z,102994.66
2023-02-09T20:07:38.168Z,102999.97
2023-02-09T20:10:44.057Z,103001.78
2023-02-09T20:13:49.791Z,102993.78
2023-02-09T20:16:53.829Z,102994.66
2023-02-09T20:19:56.671Z,102997.34
2023-02-09T20:22:59.481Z,102989.34
2023-02-09T20:26:10.575Z,103000.00
2023-02-09T20:29:13.899Z,102996.44
2023-02-09T20:32:17.070Z,103000.88
2023-02-09T20:35:20.019Z,102993.81
2023-02-09T20:38:22.864Z,103002.66
2023-02-09T20:41:27.031Z,103007.09
2023-02-09T20:44:47.609Z,103008.00
2023-02-09T20:47:50.618Z,102998.22
2023-02-09T20:50:54.492Z,102997.34
2023-02-09T20:53:57.315Z,102999.13
2023-02-09T20:57:01.514Z,102993.78
2023-02-09T21:00:09.054Z,103000.88
2023-02-09T21:03:12.382Z,103005.31
2023-02-09T21:06:16.123Z,103006.22
2023-02-09T21:09:25.031Z,103001.78
2023-02-09T21:12:29.335Z,103005.31
2023-02-09T21:15:32.365Z,103008.00
2023-02-09T21:18:36.166Z,103012.44
2023-02-09T21:21:39.680Z,103016.88
2023-02-09T21:24:42.982Z,103008.00
2023-02-09T21:27:47.275Z,103007.09
2023-02-09T21:30:50.238Z,103006.19
2023-02-09T21:33:53.425Z,103011.53
2023-02-09T21:36:56.532Z,103011.53
2023-02-09T21:40:02.880Z,103007.09
2023-02-09T21:43:07.407Z,102995.53
2023-02-09T21:46:10.960Z,103000.00
2023-02-09T21:49:14.270Z,102997.34
2023-02-09T21:52:17.159Z,103000.91
2023-02-09T21:55:20.015Z,103001.75
2023-02-09T21:58:24.341Z,102999.09
2023-02-09T22:01:27.682Z,103004.41
2023-02-09T22:04:30.775Z,102998.19
2023-02-09T22:07:35.395Z,103003.53
2023-02-09T22:10:38.275Z,103002.69
2023-02-09T22:13:42.504Z,103012.41
2023-02-09T22:16:46.778Z,103008.88
2023-02-09T22:19:49.755Z,103016.88
2023-02-09T22:22:53.096Z,103031.94
2023-02-09T22:25:59.812Z,103038.19
2023-02-09T22:29:04.065Z,103036.41
2023-02-09T22:32:07.002Z,103047.06
2023-02-09T22:35:10.059Z,103044.41
2023-02-09T22:38:13.004Z,103052.41
2023-02-09T22:41:22.296Z,103061.25
2023-02-09T22:44:28.003Z,103062.16
2023-02-09T22:47:30.971Z,103058.56
2023-02-09T22:50:33.828Z,103053.25
2023-02-09T22:53:36.752Z,103057.72
2023-02-09T22:56:39.624Z,103059.50
2023-02-09T22:59:43.965Z,103045.28
2023-02-09T23:02:47.002Z,103045.28
2023-02-09T23:05:51.089Z,103037.28
2023-02-09T23:08:54.617Z,103023.09
2023-02-09T23:11:57.551Z,103027.53
2023-02-09T23:15:01.826Z,103035.53
2023-02-09T23:18:04.799Z,103030.19
2023-02-09T23:21:09.140Z,103033.75
2023-02-09T23:24:13.322Z,103022.19
2023-02-09T23:27:16.152Z,103020.41
2023-02-09T23:30:20.581Z,103016.88
2023-02-09T23:33:23.864Z,103016.88
2023-02-09T23:36:28.791Z,103022.19
2023-02-09T23:39:32.183Z,103020.41
2023-02-09T23:42:35.096Z,103016.88
2023-02-09T23:45:39.364Z,103006.22
2023-02-09T23:48:42.264Z,103007.13
2023-02-09T23:51:45.379Z,103014.25
2023-02-09T23:54:48.356Z,103019.56
2023-02-09T23:57:51.171Z,103020.44
